createdAt,value
2023-02-12T05:09:03.024Z,6.53
2023-02-12T05:24:08.140Z,6.37
2023-02-12T05:39:12.922Z,6.67
2023-02-12T05:54:17.481Z,5.03
2023-02-12T06:09:21.938Z,5.33
2023-02-12T06:24:26.582Z,5.03
2023-02-12T06:39:31.024Z,6.03
2023-02-12T06:54:35.404Z,5.57
2023-02-12T07:09:39.823Z,5.40
2023-02-12T07:24:44.294Z,5.23
2023-02-12T07:39:48.746Z,6.27
2023-02-12T07:54:53.162Z,5.03
2023-02-12T08:09:57.621Z,5.33
2023-02-12T08:25:02.139Z,4.63
2023-02-12T08:40:07.474Z,4.63
2023-02-12T08:55:12.046Z,3.93
2023-02-12T09:10:16.921Z,2.87
2023-02-12T09:25:21.336Z,2.87
2023-02-12T09:40:32.584Z,2.10
2023-02-12T09:55:37.311Z,3.10
2023-02-12T10:10:53.382Z,3.67
2023-02-12T10:26:00.106Z,3.47
2023-02-12T10:41:04.868Z,2.97
2023-02-12T10:56:17.202Z,4.23
2023-02-12T11:11:26.173Z,3.27
2023-02-12T11:26:31.894Z,3.77
2023-02-12T11:41:38.882Z,4.57
2023-02-12T11:56:46.094Z,6.10
2023-02-12T12:11:58.879Z,6.17
2023-02-12T12:27:24.465Z,5.23
2023-02-12T12:42:50.907Z,7.70
2023-02-12T12:58:06.857Z,6.97
2023-02-12T13:13:21.840Z,6.40
2023-02-12T13:28:32.973Z,7.70
2023-02-12T13:43:50.180Z,6.43
2023-02-12T13:59:00.302Z,7.10
2023-02-12T14:14:05.455Z,6.80
2023-02-12T14:29:20.977Z,6.00
2023-02-12T14:44:48.422Z,5.83
2023-02-12T14:59:55.858Z,5.93
2023-02-12T15:15:08.652Z,6.13
2023-02-12T15:30:26.091Z,5.90
2023-02-12T15:45:32.806Z,6.47
2023-02-12T16:00:43.377Z,6.33
2023-02-12T16:15:49.726Z,7.40
2023-02-12T16:31:09.369Z,7.30
2023-02-12T16:46:17.866Z,9.07
2023-02-12T17:01:24.594Z,8.50
2023-02-12T17:16:31.250Z,8.77
2023-02-12T17:31:37.653Z,8.13
2023-02-12T17:46:42.357Z,9.73
2023-02-12T18:01:47.153Z,9.53
2023-02-12T18:16:51.808Z,10.23
2023-02-12T18:31:57.661Z,35.40
2023-02-12T18:47:02.911Z,12.60
2023-02-12T19:02:07.882Z,20.00
2023-02-12T19:17:12.402Z,16.03
2023-02-12T19:32:17.028Z,18.47
2023-02-12T19:47:21.674Z,20.17
2023-02-12T20:02:26.197Z,18.80
2023-02-12T20:17:31.414Z,19.43
2023-02-12T20:32:37.350Z,17.57
2023-02-12T20:47:42.771Z,16.97
2023-02-12T21:02:47.925Z,18.83
